Flight Track Log - Related Links

Times and Time Zones

All times are in EDT time to prevent confusion due to time zone crossing. See the UAL4376 flight status page for this flight to view local times or setup timezone preferences in your user account.


Time Position Orientation Groundspeed Altitude Reporting Facility
EDT Latitude Longitude Course Direction KTS MPH feet Rate Location/Type
Sat 07:04:18 PM 41.4178 -81.8350 169° South 133 153 2,000  Level Cleveland Center
Sat 07:04:49 PM 41.4211 -81.7992 83° East 184 212 2,900 1,978 Climbing Cleveland Center
Sat 07:05:49 PM 41.3933 -81.7361 120° Southeast 262 302 5,000 2,308 Climbing Cleveland Center
Sat 07:06:59 PM 41.3144 -81.7775 202° Southwest 263 303 7,900 2,427 Climbing Cleveland Center
Sat 07:07:00 PM 41.1379 -82.0980 167° South  Level FlightAware Approximate
Sat 07:08:00 PM 41.0283 -82.0654 169° South  Level FlightAware Approximate
Sat 07:08:00 PM 41.2444 -81.8228 206° Southwest 281 323 10,300  Level Cleveland Center
Sat 07:09:00 PM 40.9179 -82.0378 169° South  Level FlightAware Approximate
Sat 07:09:01 PM 41.1794 -81.8636 205° Southwest 298 343 11,300  Level Cleveland Center
Sat 07:10:02 PM 41.0756 -81.9314 206° Southwest 356 410 12,400 1,171 Climbing Cleveland Center
Sat 07:11:04 PM 40.9811 -81.9908 205° Southwest 370 426 13,700 1,366 Climbing Cleveland Center
Sat 07:12:05 PM 40.8858 -82.0533 206° Southwest 378 435 15,200 1,475 Climbing Cleveland Center
Sat 07:13:06 PM 40.7939 -82.1217 209° Southwest 376 433 16,700 1,220 Climbing Cleveland Center
Sat 07:14:08 PM 40.7006 -82.1894 209° Southwest 378 435 17,700 1,073 Climbing Cleveland Center
Sat 07:15:09 PM 40.6056 -82.2581 209° Southwest 385 443 18,900 1,190 Climbing Cleveland Center
Sat 07:16:14 PM 40.4928 -82.3425 210° Southwest 392 451 20,200 1,143 Climbing Indianapolis Center
Sat 07:17:15 PM 40.3925 -82.4156 209° Southwest 407 468 21,300 1,033 Climbing Indianapolis Center
Sat 07:18:16 PM 40.2903 -82.4889 209° Southwest 415 478 22,300 934 Climbing Indianapolis Center
Sat 07:19:17 PM 40.1950 -82.5561 208° Southwest 423 487 23,200 934 Climbing Indianapolis Center
Sat 07:20:18 PM 40.0750 -82.5603 182° South 431 496 24,200 1,073 Climbing Indianapolis Center
Sat 07:21:20 PM 39.9550 -82.5469 175° South 431 496 25,400 1,220 Climbing Indianapolis Center
Sat 07:22:21 PM 39.8342 -82.5303 174° South 433 498 26,700 1,279 Climbing Indianapolis Center
Sat 07:23:22 PM 39.7142 -82.5167 175° South 431 496 28,000 1,377 Climbing Indianapolis Center
Sat 07:24:23 PM 39.5714 -82.4981 174° South 429 494 29,500 1,328 Climbing Indianapolis Center
Sat 07:25:24 PM 39.4522 -82.4839 175° South 428 493 30,700 738 Climbing Indianapolis Center
Sat 07:26:25 PM 39.3356 -82.4700 175° South 438 504 31,000 148 Climbing Indianapolis Center
Sat 07:27:26 PM 39.2078 -82.4544 175° South 460 529 31,000  Level Indianapolis Center
Sat 07:28:27 PM 39.0811 -82.4375 174° South 460 529 31,000  Level Indianapolis Center
Sat 07:29:28 PM 38.9517 -82.4219 175° South 466 536 31,000  Level Indianapolis Center
Sat 07:30:30 PM 38.8225 -82.4064 175° South 467 537 31,000  Level Indianapolis Center
Sat 07:31:31 PM 38.6933 -82.3917 175° South 469 540 31,000  Level Indianapolis Center
Sat 07:32:32 PM 38.5383 -82.3722 174° South 469 540 31,000  Level Indianapolis Center
Sat 07:33:33 PM 38.4086 -82.3572 175° South 470 541 31,000  Level Indianapolis Center
Sat 07:34:34 PM 38.2792 -82.3414 175° South 469 540 31,000  Level Indianapolis Center
Sat 07:35:35 PM 38.1494 -82.3261 175° South 469 540 31,000  Level Indianapolis Center
Sat 07:36:36 PM 38.0206 -82.3122 175° South 466 536 31,000  Level Indianapolis Center
Sat 07:37:37 PM 37.8917 -82.2972 175° South 465 535 31,000  Level Indianapolis Center
Sat 07:38:38 PM 37.7594 -82.2806 174° South 471 542 31,000  Level Indianapolis Center
Sat 07:39:39 PM 37.6297 -82.2656 175° South 467 537 31,000 -197 Level Indianapolis Center
Sat 07:40:40 PM 37.5006 -82.2517 175° South 463 533 30,600 -738 Descending Indianapolis Center
Sat 07:41:41 PM 37.3500 -82.2347 175° South 463 533 29,500 -787 Descending Indianapolis Center
Sat 07:42:42 PM 37.2194 -82.2183 174° South 467 537 29,000 -246 Descending Indianapolis Center
Sat 07:43:43 PM 37.0875 -82.1850 169° South 478 550 29,000  Level Indianapolis Center
Sat 07:44:44 PM 36.9581 -82.1317 162° South 485 558 29,000 -344 Level Indianapolis Center
Sat 07:45:45 PM 36.8278 -82.0786 162° South 487 560 28,300 -1,131 Descending Indianapolis Center
Sat 07:46:46 PM 36.7011 -82.0253 161° South 481 554 26,700 -1,672 Descending Indianapolis Center
Sat 07:47:47 PM 36.5739 -81.9747 162° South 477 549 24,900 -1,328 Descending Indianapolis Center
Sat 07:48:48 PM 36.4456 -81.9222 162° South 481 554 24,000 -738 Descending Indianapolis Center
Sat 07:49:49 PM 36.3192 -81.8708 162° South 478 550 23,400 -1,131 Descending Indianapolis Center
Sat 07:50:50 PM 36.2008 -81.8242 162° South 450 518 21,700 -1,770 Descending Indianapolis Center
Sat 07:51:51 PM 36.0961 -81.7825 162° South 409 471 19,800 -1,640 Descending Indianapolis Center
Sat 07:53:09 PM 35.9803 -81.7344 161° South 368 423 17,900 -1,609 Descending Atlanta Center
Sat 07:54:09 PM 35.8900 -81.7011 163° South 347 399 16,100 -1,846 Descending Atlanta Center
Sat 07:54:40 PM 35.8353 -81.6797 162° South 326 375 15,100 -1,676 Descending Atlanta Center
Sat 07:55:17 PM 35.7828 -81.6608 164° South 323 372 14,200 -1,348 Descending Atlanta Center
Sat 07:56:09 PM 35.7178 -81.6344 162° South 321 369 13,100 -1,091 Descending Atlanta Center
Sat 07:57:18 PM 35.6039 -81.5739 157° South 385 443 12,000 -550 Descending Atlanta Center
Sat 07:58:09 PM 35.5503 -81.5017 132° Southeast 369 425 12,000 -324 Level Atlanta Center
Sat 07:59:09 PM 35.4856 -81.4067 130° Southeast 363 418 11,400 -800 Descending Atlanta Center
Sat 08:00:09 PM 35.4253 -81.3142 129° Southeast 358 412 10,400 -700 Descending Atlanta Center
Sat 08:01:09 PM 35.3647 -81.2194 128° Southeast 352 405 10,000 -200 Descending Atlanta Center
Sat 08:02:09 PM 35.2997 -81.1275 131° Southeast 352 405 10,000 -350 Level Atlanta Center
Sat 08:03:09 PM 35.2339 -81.0764 148° Southeast 304 350 9,300 -700 Descending Atlanta Center
Sat 08:04:09 PM 35.1544 -81.0642 173° South 271 312 8,600 -977 Descending Atlanta Center
Sat 08:05:18 PM 35.0792 -81.0617 178° South 240 276 7,200 -1,674 Descending Atlanta Center
Sat 08:06:18 PM 35.0200 -81.0333 159° South 231 266 5,000 -1,686 Descending Atlanta Center
Sat 08:07:19 PM 35.0567 -80.9914 43° Northeast 194 223 3,800 -1,125 Descending Atlanta Center
Sat 08:08:26 PM 35.1061 -80.9694 20° North 162 186 2,600 -984 Descending Atlanta Center
Sat 08:09:27 PM 35.1478 -80.9653 North 137 158 1,700 -787 Descending Atlanta Center
Sat 08:10:28 PM 35.1875 -80.9664 359° North 130 150 1,000 -689 Descending Atlanta Center

Login

Don't have an account? Register now (free) for customized features, flight alerts, and more!